Route Details

Aircraft Information
Group: North America Fleet
Types: B738, B752, B762, B763
Route Data
Distance: 195nm
Duration: 1h 10m
Origin METAR: KRDU 010553Z 03009KT 7SM -RA BKN004 OVC008 09/08 A3009 RMK AO2 P0000 T00890078
Dest. METAR: KIAD 010627Z 02008KT 5SM -RA BR FEW007 SCT010 OVC015 02/M01 A3019 RMK AO2 RAB25 P0000 T00171006
Freight Data
(for Feb 1, 2023)
Load Factor:
60%
Manifested Cargo: 38,528lbs
Financial History
Total Freight: 139,803lbs
Average Load: 0lbs/flt
Fuel Used: 11,509lbs
Avg. Fuel Used: 0lbs/flt
Fuel Expense: $7,972
Avg. Fuel Expense: $0
Avg. Fuel Cost: $0/lbs
Total Gross Income: $356,498
Pilot Pay: $508
Total Expenses: $74,600
Total Revenue: $273,548
Average Revenue: $0

Capitol Logistics 451




KRDU
Raleigh Durham International Airport
Raleigh-durham, North Carolina
KIAD
Washington Dulles International Airport
Dulles, Virginia

Activity Log

Date Flight Route Aircraft Duration
01/11/2023 CPX451 OXFRD5 CARML DCT DORRN CAVLR4 B738 0h 49m
07/12/2022 CPX451 OXFRD5 CARML DCT DORRN CAVLR4 B763 0h 40m